Time;durP1;ratioP1;P1;durP2;ratioP2;P2;SDS_P1;SDS_P2;PMS_P1;PMS_P2;Temp;Humidity;BMP_temperature;BMP_pressure;BME280_temperature;BME280_humidity;BME280_pressure;Samples;Min_cycle;Max_cycle;Signal;HPM_P1;HPM_P2
2023/09/12 00:01:32;;;;;;;0.22;0.22;;;;;;;18.22;47.60;99877.84;4976643;28;20034;-87
2023/09/12 00:03:58;;;;;;;0.25;0.25;;;;;;;18.22;47.62;99876.97;4993969;28;20038;-87
2023/09/12 00:06:24;;;;;;;0.30;0.30;;;;;;;18.29;47.74;99889.16;4989695;28;20038;-88
2023/09/12 00:08:51;;;;;;;0.20;0.20;;;;;;;18.26;48.07;99902.63;4993692;28;20046;-88
2023/09/12 00:11:16;;;;;;;0.20;0.20;;;;;;;17.89;47.83;99866.84;4993539;28;20039;-89
2023/09/12 00:13:41;;;;;;;0.10;0.10;;;;;;;18.19;47.90;99909.16;4994118;28;20031;-88
2023/09/12 00:16:10;;;;;;;0.45;0.45;;;;;;;18.01;47.30;99881.44;4993667;28;20042;-87
2023/09/12 00:18:37;;;;;;;0.10;0.10;;;;;;;17.81;46.92;99853.78;4993563;28;20473;-87
2023/09/12 00:21:02;;;;;;;0.57;0.57;;;;;;;17.72;45.38;99875.53;4993661;28;20026;-87
2023/09/12 00:23:28;;;;;;;2.50;1.25;;;;;;;17.68;44.21;99887.25;4993588;28;20125;-87
2023/09/12 00:25:54;;;;;;;0.20;0.20;;;;;;;17.50;43.83;99854.19;4993698;28;20034;-87
2023/09/12 00:28:20;;;;;;;0.57;0.57;;;;;;;17.82;42.85;99916.00;4992938;28;20050;-87
2023/09/12 00:30:45;;;;;;;0.10;0.10;;;;;;;17.62;42.30;99884.81;4976183;28;20042;-86
2023/09/12 00:33:11;;;;;;;0.10;0.10;;;;;;;17.72;42.02;99910.19;4993615;28;20076;-88
2023/09/12 00:35:36;;;;;;;0.20;0.20;;;;;;;17.59;42.47;99879.63;4993575;28;20116;-88
2023/09/12 00:38:02;;;;;;;0.30;0.30;;;;;;;17.59;42.91;99885.81;4993208;28;20038;-87
2023/09/12 00:40:28;;;;;;;0.15;0.15;;;;;;;17.47;43.38;99896.97;4992996;28;20034;-87
2023/09/12 00:42:54;;;;;;;0.13;0.13;;;;;;;17.64;44.11;99896.28;4992785;28;20033;-88
2023/09/12 00:45:19;;;;;;;0.13;0.13;;;;;;;17.70;44.24;99890.69;4974855;28;20050;-88
2023/09/12 00:47:46;;;;;;;0.15;0.15;;;;;;;17.49;44.18;99888.00;4973942;28;20031;-88
2023/09/12 00:50:14;;;;;;;0.30;0.30;;;;;;;17.49;43.87;99865.78;4973184;28;20478;-87
2023/09/12 00:52:41;;;;;;;0.10;0.10;;;;;;;17.72;44.01;99915.53;4973421;28;20507;-88
2023/09/12 00:55:07;;;;;;;0.50;0.30;;;;;;;17.53;43.97;99870.94;4973761;28;20027;-88
2023/09/12 00:57:34;;;;;;;0.47;0.45;;;;;;;17.45;43.83;99866.84;4973564;28;20449;-88
2023/09/12 01:00:34;;;;;;;0.40;0.40;;;;;;;17.76;44.49;99921.59;4982570;28;20041;-87
2023/09/12 01:03:00;;;;;;;0.45;0.32;;;;;;;17.02;44.04;99873.88;4992762;28;20030;-87
2023/09/12 01:05:26;;;;;;;0.15;0.15;;;;;;;17.45;43.77;99936.19;4992980;28;20390;-87
2023/09/12 01:07:52;;;;;;;0.75;0.75;;;;;;;17.12;43.83;99884.13;4992145;28;20054;-88
2023/09/12 01:10:18;;;;;;;0.13;0.13;;;;;;;17.35;44.57;99925.00;4987599;28;20035;-87
2023/09/12 01:12:44;;;;;;;2.63;0.75;;;;;;;17.24;45.18;99911.22;4972976;28;20034;-88
2023/09/12 01:15:13;;;;;;;0.20;0.20;;;;;;;17.09;45.40;99897.56;4965222;28;20053;-86
2023/09/12 01:17:41;;;;;;;1.35;1.25;;;;;;;16.85;46.08;99906.47;4992094;28;20642;-89
2023/09/12 01:20:10;;;;;;;0.65;0.65;;;;;;;16.85;46.38;99928.63;4992517;28;20022;-87
2023/09/12 01:22:59;;;;;;;0.45;0.30;;;;;;;16.69;45.65;99888.38;4973881;28;20039;-88
2023/09/12 01:26:02;;;;;;;0.40;0.40;;;;;;;16.99;46.20;99936.13;4955199;28;20457;-87
2023/09/12 01:28:31;;;;;;;0.30;0.30;;;;;;;16.67;46.91;99905.34;4973510;28;20147;-86
2023/09/12 01:30:58;;;;;;;0.38;0.38;;;;;;;16.89;47.09;99935.63;4974365;28;20109;-86
2023/09/12 01:33:23;;;;;;;0.20;0.20;;;;;;;16.88;47.65;99938.34;4992292;28;20046;-86
2023/09/12 01:35:49;;;;;;;2.38;1.50;;;;;;;16.61;48.13;99912.63;4992558;28;20038;-86
2023/09/12 01:38:14;;;;;;;1.65;0.52;;;;;;;16.59;48.12;99909.16;4992474;28;20510;-87
2023/09/12 01:40:49;;;;;;;0.85;0.80;;;;;;;16.44;48.44;99899.06;4992030;28;20045;-86
2023/09/12 01:43:18;;;;;;;0.70;0.70;;;;;;;16.28;48.62;99870.34;4992226;28;20027;-86
2023/09/12 01:45:55;;;;;;;0.57;0.57;;;;;;;16.60;49.97;99953.50;4992382;28;20032;-86
2023/09/12 01:48:26;;;;;;;0.40;0.40;;;;;;;16.47;50.33;99936.25;4972778;28;20632;-88
2023/09/12 01:50:52;;;;;;;0.80;0.80;;;;;;;16.07;50.96;99895.91;4955575;28;20034;-86
2023/09/12 01:53:19;;;;;;;0.47;0.40;;;;;;;16.07;51.24;99906.53;4978718;28;20497;-84
2023/09/12 01:55:46;;;;;;;0.90;0.70;;;;;;;16.08;51.34;99886.13;4992275;28;20551;-85
2023/09/12 01:58:12;;;;;;;1.80;1.17;;;;;;;16.00;51.44;99873.06;4992116;28;20112;-85
2023/09/12 02:00:39;;;;;;;0.85;0.85;;;;;;;16.33;51.76;99954.47;4991564;28;20038;-86
2023/09/12 02:03:05;;;;;;;0.47;0.30;;;;;;;16.04;51.90;99927.06;4991522;28;20026;-86
2023/09/12 02:05:30;;;;;;;0.30;0.30;;;;;;;16.35;51.73;99961.50;4992066;28;20136;-86
2023/09/12 02:07:56;;;;;;;0.77;0.50;;;;;;;16.19;52.00;99934.53;4991673;28;20436;-86
2023/09/12 02:10:21;;;;;;;0.25;0.25;;;;;;;15.87;52.38;99922.31;4992624;28;20023;-85
2023/09/12 02:12:59;;;;;;;0.43;0.30;;;;;;;15.97;53.07;99976.09;4992313;28;20030;-86
2023/09/12 02:15:24;;;;;;;0.80;0.70;;;;;;;16.02;52.63;99929.78;4992011;28;20492;-86
2023/09/12 02:17:51;;;;;;;3.10;1.60;;;;;;;15.99;52.90;99942.31;4991254;28;20030;-86
2023/09/12 02:20:16;;;;;;;1.10;0.90;;;;;;;15.91;53.51;99955.88;4973941;28;20038;-86
2023/09/12 02:22:42;;;;;;;1.75;0.82;;;;;;;15.72;53.93;99953.78;4991106;28;20034;-86
2023/09/12 02:25:08;;;;;;;0.22;0.22;;;;;;;15.39;54.58;99919.34;4991301;28;20041;-86
2023/09/12 02:27:34;;;;;;;0.28;0.28;;;;;;;15.49;54.64;99949.22;4973361;28;20383;-86
2023/09/12 02:29:59;;;;;;;0.47;0.47;;;;;;;15.52;54.99;99935.81;4978836;28;20050;-86
2023/09/12 02:32:24;;;;;;;0.52;0.43;;;;;;;15.47;54.89;99912.94;4972303;28;20038;-88
2023/09/12 02:34:50;;;;;;;;;;;;;;;15.82;54.44;99965.03;4971861;28;20497;-87
2023/09/12 02:37:15;;;;;;;0.35;0.35;;;;;;;15.57;54.07;99938.34;4971729;28;19914;-87
2023/09/12 02:39:41;;;;;;;;;;;;;;;15.60;54.97;99962.16;4977726;28;20030;-87
2023/09/12 02:42:07;;;;;;;0.85;0.75;;;;;;;15.35;55.13;99922.16;4990769;28;19921;-86
2023/09/12 02:44:32;;;;;;;;;;;;;;;15.66;56.13;99959.31;4991762;28;20184;-87
2023/09/12 02:46:57;;;;;;;1.73;0.98;;;;;;;15.47;56.70;99943.03;4990880;28;19917;-87
2023/09/12 02:49:23;;;;;;;0.30;0.30;;;;;;;15.18;57.11;99904.97;4990603;28;20056;-88
2023/09/12 02:51:48;;;;;;;0.32;0.32;;;;;;;15.30;56.76;99916.13;4990900;28;20174;-87
2023/09/12 02:54:13;;;;;;;;;;;;;;;15.51;57.59;99957.13;4992359;28;20038;-86
2023/09/12 02:56:39;;;;;;;22.95;0.57;;;;;;;15.11;57.99;99916.69;4991179;28;19952;-86
2023/09/12 02:59:05;;;;;;;1.17;1.08;;;;;;;15.38;58.00;99954.84;4991073;28;20042;-86
2023/09/12 03:01:30;;;;;;;0.77;0.77;;;;;;;15.38;57.94;99967.25;4990717;28;20041;-84
2023/09/12 03:03:57;;;;;;;1.48;1.38;;;;;;;15.26;58.15;99927.75;4990459;28;20030;-85
2023/09/12 03:06:22;;;;;;;0.75;0.70;;;;;;;15.26;58.45;99933.97;4989882;28;20084;-83
2023/09/12 03:08:48;;;;;;;1.30;1.08;;;;;;;15.48;58.12;99957.22;4990392;28;20121;-82
2023/09/12 03:11:13;;;;;;;;;;;;;;;15.51;57.98;99960.66;4986875;28;20030;-83
2023/09/12 03:13:41;;;;;;;1.15;0.45;;;;;;;15.20;57.66;99910.25;4970063;28;19918;-83
2023/09/12 03:16:10;;;;;;;0.43;0.43;;;;;;;15.50;57.27;99964.22;4952446;28;20043;-84
2023/09/12 03:18:36;;;;;;;0.73;0.73;;;;;;;15.33;57.60;99937.28;4970157;28;20042;-83
2023/09/12 03:21:02;;;;;;;0.63;0.63;;;;;;;15.21;58.40;99944.72;4970459;28;20421;-82
2023/09/12 03:23:27;;;;;;;;;;;;;;;15.25;58.50;99971.22;4972457;28;20102;-83
2023/09/12 03:25:52;;;;;;;0.30;0.30;;;;;;;15.19;58.38;99943.03;4970483;28;19920;-84
2023/09/12 03:28:18;;;;;;;0.25;0.25;;;;;;;15.01;58.41;99901.94;4969821;28;20031;-84
2023/09/12 03:30:43;;;;;;;1.10;0.93;;;;;;;15.29;58.64;99948.94;4970224;28;20033;-84
2023/09/12 03:33:09;;;;;;;1.30;0.50;;;;;;;15.37;58.44;99965.53;4972675;28;20035;-83
2023/09/12 03:35:34;;;;;;;;;;;;;;;15.33;58.64;99974.50;4970284;28;20485;-83
2023/09/12 03:38:00;;;;;;;0.50;0.50;;;;;;;15.33;58.90;99971.84;4981271;28;19922;-83
2023/09/12 03:40:29;;;;;;;1.95;1.10;;;;;;;15.15;58.81;99962.63;4991775;28;20038;-83
2023/09/12 03:42:54;;;;;;;0.43;0.43;;;;;;;15.13;58.21;99945.88;4991655;28;20033;-83
2023/09/12 03:45:21;;;;;;;0.43;0.40;;;;;;;15.40;58.26;99979.59;4992830;28;20053;-83
2023/09/12 03:47:46;;;;;;;1.25;1.17;;;;;;;15.12;58.18;99945.00;4993240;28;20034;-83
2023/09/12 03:50:12;;;;;;;;;;;;;;;15.35;58.08;99988.59;4975717;28;20415;-84
2023/09/12 03:52:38;;;;;;;2.10;1.50;;;;;;;15.10;58.32;99956.59;4994127;28;19930;-86
2023/09/12 03:55:04;;;;;;;2.22;0.95;;;;;;;15.21;58.56;100002.31;4991561;28;20043;-86
2023/09/12 03:57:29;;;;;;;;;;;;;;;15.18;58.61;99995.31;4994006;28;20068;-86
2023/09/12 03:59:54;;;;;;;0.70;0.70;;;;;;;15.10;58.49;99977.84;4993697;28;19918;-84
2023/09/12 04:02:20;;;;;;;1.05;0.85;;;;;;;15.16;58.00;99961.72;4993893;28;20385;-83
2023/09/12 04:04:45;;;;;;;0.17;0.17;;;;;;;15.40;57.99;100000.00;4993651;28;20048;-84
2023/09/12 04:07:11;;;;;;;1.00;0.98;;;;;;;15.11;58.42;99976.94;4993853;28;20136;-83
2023/09/12 04:09:36;;;;;;;;;;;;;;;15.33;59.20;100001.09;4994499;28;20042;-84
2023/09/12 04:12:02;;;;;;;0.40;0.40;;;;;;;15.11;58.94;99950.38;4994008;28;19917;-84
2023/09/12 04:14:27;;;;;;;15.23;2.13;;;;;;;15.42;59.29;100008.78;4993703;28;20397;-88
2023/09/12 04:16:53;;;;;;;11.80;1.15;;;;;;;15.13;59.69;99949.38;4993976;28;20406;-86
2023/09/12 04:22:21;;;;;;;1.63;1.52;;;;;;;15.16;59.88;99977.66;4992643;28;19972;-85
2023/09/12 04:24:46;;;;;;;9.18;2.45;;;;;;;15.22;59.07;99974.81;4993348;28;20038;-86
2023/09/12 04:27:11;;;;;;;;;;;;;;;15.29;59.80;99997.66;4993240;28;20026;-85
2023/09/12 04:29:37;;;;;;;;;;;;;;;15.27;59.79;100002.13;4982700;28;19930;-86
2023/09/12 04:32:05;;;;;;;;;;;;;;;15.29;59.21;99996.75;4957212;28;19914;-85
2023/09/12 04:34:31;;;;;;;3.55;0.70;;;;;;;15.39;59.18;99976.97;4973191;28;19914;-85
2023/09/12 04:36:56;;;;;;;3.50;3.20;;;;;;;15.49;58.51;99975.78;4988323;28;20463;-85
2023/09/12 04:39:22;;;;;;;1.52;0.68;;;;;;;15.53;58.74;99981.88;4992554;28;20503;-86
2023/09/12 04:41:48;;;;;;;1.63;1.02;;;;;;;15.77;58.09;99990.91;4992043;28;20549;-90
2023/09/12 04:44:13;;;;;;;0.77;0.75;;;;;;;15.77;58.14;99993.56;4991541;28;20373;-85
2023/09/12 04:46:39;;;;;;;;;;;;;;;15.82;58.59;100004.03;4999380;28;20041;-86
2023/09/12 04:49:04;;;;;;;0.65;0.60;;;;;;;15.66;58.42;99963.75;4985747;28;19925;-88
2023/09/12 04:51:30;;;;;;;1.17;1.02;;;;;;;15.85;57.64;99972.91;4989980;28;20041;-85
2023/09/12 04:53:55;;;;;;;;;;;;;;;16.05;58.15;100012.16;4992618;28;20038;-85
2023/09/12 04:56:25;;;;;;;1.55;1.45;;;;;;;15.90;58.27;99991.38;4979404;28;20483;-86
2023/09/12 04:58:51;;;;;;;1.27;1.17;;;;;;;16.05;57.84;99974.91;4992032;28;20030;-85
2023/09/12 05:01:17;;;;;;;5.15;1.95;;;;;;;16.01;57.86;99964.44;4992330;28;20049;-85
2023/09/12 05:03:42;;;;;;;;;;;;;;;16.29;57.82;100009.59;4990131;28;20042;-84
2023/09/12 05:06:08;;;;;;;1.75;1.65;;;;;;;16.30;58.19;99995.38;4991671;28;19926;-90
2023/09/12 05:08:33;;;;;;;1.98;1.88;;;;;;;16.33;58.30;99995.28;4992567;28;20026;-85
2023/09/12 05:10:59;;;;;;;2.22;1.85;;;;;;;16.39;58.26;100002.16;4988613;28;20493;-87
2023/09/12 05:13:24;;;;;;;9.10;4.43;;;;;;;16.62;58.45;100015.59;4991951;28;20034;-85
2023/09/12 05:15:50;;;;;;;1.00;0.90;;;;;;;16.74;56.83;100010.75;4967584;28;20061;-88
2023/09/12 05:18:15;;;;;;;2.72;1.85;;;;;;;16.50;57.22;99969.84;4972548;28;20031;-90
2023/09/12 05:20:41;;;;;;;;;;;;;;;16.85;57.56;100002.38;4971030;28;20094;-87
2023/09/12 05:23:06;;;;;;;0.30;0.30;;;;;;;16.85;56.55;99973.06;4972518;28;20372;-90
2023/09/12 05:25:32;;;;;;;1.55;0.80;;;;;;;17.23;56.60;100010.78;4982933;28;20471;-87
2023/09/12 05:27:57;;;;;;;;;;;;;;;17.33;56.42;100002.41;4978834;28;20038;-88
2023/09/12 05:30:22;;;;;;;1.40;1.30;;;;;;;17.43;55.82;100002.91;4983543;28;19980;-87
2023/09/12 05:32:48;;;;;;;1.20;1.08;;;;;;;17.32;55.72;99946.47;4980831;28;20046;-90
2023/09/12 05:35:13;;;;;;;;;;;;;;;17.80;55.15;100004.13;4983338;28;20133;-91
2023/09/12 05:37:39;;;;;;;1.02;0.88;;;;;;;17.87;54.88;99962.94;4992041;28;19921;-92
2023/09/12 05:40:05;;;;;;;3.35;2.85;;;;;;;17.95;53.91;99954.66;4973636;28;20034;-91
2023/09/12 05:42:31;;;;;;;1.50;0.73;;;;;;;17.81;54.05;99948.94;4977499;28;20122;-93
2023/09/12 05:44:57;;;;;;;2.15;1.23;;;;;;;18.02;53.56;99955.25;4966499;28;20130;-92
2023/09/12 05:47:22;;;;;;;1.10;1.05;;;;;;;18.40;52.95;99963.44;4971934;28;20035;-90
2023/09/12 05:49:48;;;;;;;1.55;1.45;;;;;;;18.56;52.13;99964.50;4986660;28;20076;-92
2023/09/12 05:52:14;;;;;;;1.40;1.30;;;;;;;19.06;52.19;100007.78;4980790;28;20041;-96
2023/09/12 05:54:43;;;;;;;0.85;0.82;;;;;;;19.27;50.70;99968.50;4956755;28;20041;-95
2023/09/12 05:57:10;;;;;;;0.65;0.60;;;;;;;19.52;50.94;99967.34;4974154;28;20037;-94
2023/09/12 05:59:37;;;;;;;1.20;1.13;;;;;;;19.25;49.01;99943.66;4972435;28;20030;-96
2023/09/12 06:02:05;;;;;;;0.63;0.63;;;;;;;19.21;49.07;99912.63;4973890;28;20777;-96
2023/09/12 06:04:31;;;;;;;1.08;0.98;;;;;;;19.77;48.87;99956.34;4975190;28;20030;-96
2023/09/12 06:06:57;;;;;;;3.22;1.33;;;;;;;20.03;48.00;99961.31;4972002;28;20170;-94
2023/09/12 06:09:22;;;;;;;5.05;1.33;;;;;;;20.58;47.27;99987.06;4978202;28;20061;-95
2023/09/12 06:11:48;;;;;;;1.08;0.85;;;;;;;20.17;47.00;99965.06;4963910;28;20126;-94
2023/09/12 06:14:13;;;;;;;1.33;1.23;;;;;;;20.10;46.58;99956.50;4953934;28;20034;-91
2023/09/12 06:16:39;;;;;;;3.03;1.27;;;;;;;20.28;47.39;99935.06;4982981;28;20038;-91
2023/09/12 06:19:04;;;;;;;1.85;0.90;;;;;;;21.12;46.36;100007.53;4974710;28;20034;-91
2023/09/12 06:21:30;;;;;;;1.27;1.17;;;;;;;20.93;45.64;99992.44;4984358;28;20065;-92
2023/09/12 06:24:16;;;;;;;0.80;0.80;;;;;;;21.61;45.09;99983.41;4974215;28;20134;-92
2023/09/12 06:26:42;;;;;;;2.60;1.45;;;;;;;22.30;43.79;100010.81;4983025;28;20080;-91
2023/09/12 06:29:07;;;;;;;2.05;1.60;;;;;;;22.12;43.02;99967.06;4969510;28;20038;-89
2023/09/12 06:31:33;;;;;;;2.85;1.10;;;;;;;22.43;41.08;99999.34;4983267;28;20034;-91
2023/09/12 06:33:59;;;;;;;1.10;0.90;;;;;;;22.01;42.11;99980.25;4973813;28;20256;-89
2023/09/12 06:36:25;;;;;;;1.63;1.17;;;;;;;22.38;42.68;99988.00;4991332;28;20096;-89
2023/09/12 06:38:51;;;;;;;0.32;0.15;;;;;;;22.67;42.42;99975.50;4991055;28;20023;-90
2023/09/12 06:41:20;;;;;;;4.65;1.20;;;;;;;22.56;41.51;99968.09;4991127;28;20153;-88
2023/09/12 06:43:45;;;;;;;1.85;0.77;;;;;;;22.84;41.00;100007.59;4974629;28;20033;-91
2023/09/12 06:46:11;;;;;;;1.67;0.90;;;;;;;22.53;40.70;99984.41;4973762;28;20022;-90
2023/09/12 06:48:36;;;;;;;0.35;0.35;;;;;;;22.95;39.74;100009.63;4987778;28;20027;-91
2023/09/12 06:51:08;;;;;;;0.60;0.60;;;;;;;23.15;39.45;99986.03;4954154;28;20100;-93
2023/09/12 06:53:33;;;;;;;0.90;0.80;;;;;;;23.28;39.72;99973.53;4972260;28;20482;-90
2023/09/12 06:55:59;;;;;;;3.15;1.55;;;;;;;24.00;39.52;100016.50;4978222;28;20026;-92
2023/09/12 06:58:25;;;;;;;0.40;0.40;;;;;;;24.23;37.83;100000.66;4993376;28;20042;-93
2023/09/12 07:00:51;;;;;;;1.55;0.80;;;;;;;23.88;38.56;99985.88;4989063;28;20041;-92
2023/09/12 07:03:16;;;;;;;1.00;0.70;;;;;;;23.41;37.99;100012.16;5009668;28;20412;-94
2023/09/12 07:05:42;;;;;;;0.57;0.50;;;;;;;23.24;38.66;99974.69;4989823;28;20087;-90
2023/09/12 07:08:08;;;;;;;0.43;0.43;;;;;;;23.43;40.51;100006.69;4990360;28;20050;-89
2023/09/12 07:10:34;;;;;;;1.55;1.05;;;;;;;23.31;39.03;99959.00;4990181;28;20033;-90
2023/09/12 07:12:59;;;;;;;1.45;1.10;;;;;;;23.70;38.81;99995.97;4971619;28;20031;-92
2023/09/12 07:15:25;;;;;;;0.63;0.63;;;;;;;23.93;38.87;99989.09;4992108;28;20038;-91
2023/09/12 07:17:51;;;;;;;2.50;1.48;;;;;;;24.30;39.00;99978.56;4992971;28;20034;-90
2023/09/12 07:20:17;;;;;;;1.13;0.50;;;;;;;24.45;37.56;99960.50;5013516;28;20030;-93
2023/09/12 07:22:43;;;;;;;0.98;0.52;;;;;;;24.65;36.15;99977.13;4995313;28;20408;-93
2023/09/12 07:25:11;;;;;;;1.27;0.93;;;;;;;24.67;37.04;99924.84;4995181;28;20049;-89
2023/09/12 07:27:37;;;;;;;0.80;0.65;;;;;;;25.47;36.82;99998.41;4985892;28;20058;-93
2023/09/12 07:30:06;;;;;;;1.90;1.55;;;;;;;25.47;36.00;100009.19;4956062;28;20085;-92
2023/09/12 07:32:32;;;;;;;0.30;0.30;;;;;;;25.05;35.77;99986.97;4973361;28;20129;-90
2023/09/12 07:34:57;;;;;;;3.45;1.17;;;;;;;25.25;37.73;99962.13;4973406;28;20596;-91
2023/09/12 07:37:23;;;;;;;0.50;0.50;;;;;;;25.71;36.96;99993.06;4996819;28;20022;-90
2023/09/12 07:39:48;;;;;;;1.30;1.20;;;;;;;25.92;36.17;99977.94;4973191;28;20023;-91
2023/09/12 07:42:15;;;;;;;0.65;0.65;;;;;;;26.11;34.14;99968.50;4972876;28;20027;-91
2023/09/12 07:44:41;;;;;;;1.95;0.70;;;;;;;26.12;36.29;99948.59;4972938;28;20035;-93
2023/09/12 07:47:07;;;;;;;2.08;1.08;;;;;;;26.05;34.71;99993.28;4981727;28;20096;-92
2023/09/12 07:49:32;;;;;;;2.47;1.20;;;;;;;25.77;35.44;99971.00;4976129;28;20136;-94
2023/09/12 07:51:58;;;;;;;0.52;0.47;;;;;;;25.33;35.80;99981.38;4992758;28;20125;-93
2023/09/12 07:54:23;;;;;;;0.70;0.47;;;;;;;25.28;37.01;99961.03;4992716;28;20030;-89
2023/09/12 07:56:49;;;;;;;1.90;1.10;;;;;;;25.74;38.08;99947.75;4982443;28;20042;-91
2023/09/12 07:59:14;;;;;;;0.82;0.50;;;;;;;26.10;34.38;99969.47;4990089;28;20062;-91
2023/09/12 08:01:40;;;;;;;0.55;0.32;;;;;;;26.43;33.91;99948.91;4968709;28;20033;-90
2023/09/12 08:04:06;;;;;;;0.95;0.95;;;;;;;26.43;37.35;99936.28;4973689;28;20043;-90
2023/09/12 08:06:32;;;;;;;0.57;0.57;;;;;;;27.06;33.99;99976.50;4958047;28;20441;-91
2023/09/12 08:08:58;;;;;;;1.17;0.90;;;;;;;27.05;34.30;99973.91;4964274;28;20355;-91
2023/09/12 08:11:24;;;;;;;0.88;0.75;;;;;;;27.46;33.13;99983.28;4972817;28;20081;-90
2023/09/12 08:13:50;;;;;;;1.35;0.88;;;;;;;26.92;32.08;99926.16;4973001;28;20027;-90
2023/09/12 08:16:16;;;;;;;1.60;0.60;;;;;;;27.15;33.62;99964.94;4980947;28;20038;-91
2023/09/12 08:18:41;;;;;;;5.30;1.95;;;;;;;27.10;32.74;99955.47;5012297;28;20025;-91
2023/09/12 08:21:06;;;;;;;0.57;0.43;;;;;;;26.41;33.06;99924.72;5011243;28;20034;-91
2023/09/12 08:23:36;;;;;;;1.60;0.93;;;;;;;26.17;33.56;99934.75;5011328;28;20038;-91
2023/09/12 08:26:01;;;;;;;2.08;1.42;;;;;;;26.38;33.10;99924.94;4989083;28;20045;-91
2023/09/12 08:28:27;;;;;;;0.30;0.30;;;;;;;26.84;32.09;99961.09;4985833;28;20031;-91
2023/09/12 08:30:53;;;;;;;1.70;0.88;;;;;;;26.62;32.53;99921.31;4973404;28;20473;-92
2023/09/12 08:33:18;;;;;;;1.15;0.75;;;;;;;26.81;32.68;99939.69;4973241;28;20023;-90
2023/09/12 08:35:44;;;;;;;1.85;1.10;;;;;;;26.75;32.62;99913.13;4975267;28;20524;-93
2023/09/12 08:38:10;;;;;;;0.60;0.50;;;;;;;26.58;34.12;99928.78;4975553;28;20031;-89
2023/09/12 08:40:35;;;;;;;0.70;0.50;;;;;;;26.48;33.05;99922.41;4972986;28;20493;-89
2023/09/12 08:43:03;;;;;;;1.33;0.95;;;;;;;26.85;32.25;99919.53;4972357;28;20027;-92
2023/09/12 08:45:29;;;;;;;10.48;1.05;;;;;;;27.15;31.84;99942.41;4972486;28;20023;-92
2023/09/12 08:47:58;;;;;;;2.38;1.65;;;;;;;26.53;33.13;99912.06;4954760;28;20130;-91
2023/09/12 08:50:24;;;;;;;0.57;0.32;;;;;;;27.07;31.72;99915.09;4971922;28;20045;-91
2023/09/12 08:52:50;;;;;;;8.05;0.57;;;;;;;27.29;31.03;99944.84;4971847;28;20031;-89
2023/09/12 08:55:16;;;;;;;0.68;0.52;;;;;;;27.16;32.19;99939.59;4972138;28;20030;-91
2023/09/12 08:57:43;;;;;;;1.50;0.93;;;;;;;26.85;33.80;99921.38;4971669;28;20045;-89
2023/09/12 09:00:14;;;;;;;0.32;0.30;;;;;;;27.12;32.46;99924.56;4969917;28;20042;-91
2023/09/12 09:02:43;;;;;;;0.50;0.50;;;;;;;27.28;31.39;99936.84;4962615;28;20088;-91
2023/09/12 09:05:11;;;;;;;0.55;0.55;;;;;;;27.26;30.97;99895.53;4973645;28;20421;-90
2023/09/12 09:07:41;;;;;;;0.93;0.60;;;;;;;26.73;31.81;99945.72;4991175;28;20078;-90
2023/09/12 09:10:10;;;;;;;2.42;1.33;;;;;;;26.38;32.61;99900.59;4979754;28;20037;-89
2023/09/12 09:12:39;;;;;;;0.70;0.70;;;;;;;26.52;33.65;99929.28;4972091;28;20471;-91
2023/09/12 09:15:41;;;;;;;0.90;0.68;;;;;;;27.18;33.39;99938.59;4970959;28;20097;-91
2023/09/12 09:18:06;;;;;;;0.93;0.60;;;;;;;27.44;31.59;99925.69;4931953;29;20446;-93
2023/09/12 09:20:37;;;;;;;0.10;0.10;;;;;;;27.69;30.70;99894.72;4939278;29;20053;-95
2023/09/12 09:23:10;;;;;;;0.40;0.30;;;;;;;27.62;32.58;99937.72;4929945;29;20035;-95
2023/09/12 09:25:39;;;;;;;0.73;0.68;;;;;;;27.81;32.86;99928.06;4902999;29;20126;-95
2023/09/12 09:28:14;;;;;;;1.52;0.95;;;;;;;27.50;31.33;99903.50;4931435;29;20087;-94
2023/09/12 09:30:45;;;;;;;0.20;0.20;;;;;;;27.75;33.62;99887.94;4934902;29;20564;-95
2023/09/12 09:36:21;;;;;;;2.70;1.23;;;;;;;27.26;30.80;99877.41;5074340;23;20050;-93
2023/09/12 09:41:40;;;;;;;0.55;0.47;;;;;;;27.32;30.54;99862.56;5093193;23;20132;-90
2023/09/12 09:44:07;;;;;;;1.13;0.73;;;;;;;27.80;29.95;99913.63;4991824;28;20030;-93
2023/09/12 09:46:33;;;;;;;1.17;0.93;;;;;;;27.99;29.48;99917.53;4993152;28;20030;-95
2023/09/12 09:48:59;;;;;;;0.65;0.65;;;;;;;27.86;29.56;99850.78;4976530;28;20492;-92
2023/09/12 09:51:25;;;;;;;2.28;0.85;;;;;;;27.88;30.03;99888.59;4973254;28;20026;-94
2023/09/12 09:53:58;;;;;;;0.47;0.38;;;;;;;27.09;29.86;99877.94;4972804;28;20129;-94
2023/09/12 09:56:24;;;;;;;0.90;0.77;;;;;;;27.27;31.07;99875.59;4960619;28;20713;-91
2023/09/12 09:58:54;;;;;;;1.75;1.00;;;;;;;27.63;31.89;99912.31;4990117;28;20034;-90
2023/09/12 10:01:21;;;;;;;0.22;0.22;;;;;;;27.58;30.90;99881.22;4990577;28;20116;-91
2023/09/12 10:03:51;;;;;;;1.00;0.98;;;;;;;28.02;29.15;99890.16;4971647;28;20060;-89
2023/09/12 10:06:18;;;;;;;1.35;1.02;;;;;;;27.75;29.97;99853.56;4989909;28;20048;-91
2023/09/12 10:08:54;;;;;;;6.57;1.17;;;;;;;27.51;28.54;99840.19;4953630;28;20086;-88
2023/09/12 10:11:24;;;;;;;0.63;0.57;;;;;;;27.85;28.48;99842.78;4969895;28;20030;-88
2023/09/12 10:13:53;;;;;;;1.10;0.80;;;;;;;28.26;27.57;99884.50;4970217;28;20035;-88
2023/09/12 10:16:24;;;;;;;0.52;0.50;;;;;;;27.98;27.30;99835.34;4971045;28;20109;-88
2023/09/12 10:18:58;;;;;;;2.10;1.40;;;;;;;28.20;28.84;99874.19;4969984;28;20040;-91
2023/09/12 10:21:30;;;;;;;0.82;0.68;;;;;;;28.17;28.71;99837.34;4953280;28;20038;-91
2023/09/12 10:23:57;;;;;;;1.55;1.10;;;;;;;28.25;27.75;99861.06;4970851;28;20489;-93
2023/09/12 10:26:24;;;;;;;1.02;0.57;;;;;;;28.32;29.28;99850.56;4970453;28;20061;-94
2023/09/12 10:28:51;;;;;;;1.17;1.08;;;;;;;28.20;28.67;99836.22;4969821;28;20116;-92
2023/09/12 10:31:17;;;;;;;2.30;1.40;;;;;;;28.21;28.13;99844.22;4971246;28;20100;-92
2023/09/12 10:33:44;;;;;;;1.70;1.10;;;;;;;28.41;28.22;99825.34;4970595;28;20493;-90
2023/09/12 10:36:25;;;;;;;1.30;0.88;;;;;;;28.52;28.31;99860.53;4971906;28;20150;-90
2023/09/12 10:38:55;;;;;;;1.02;0.77;;;;;;;28.71;28.39;99856.22;4971121;28;20123;-92
2023/09/12 10:41:23;;;;;;;2.65;0.73;;;;;;;28.59;28.57;99855.44;4971015;28;20502;-90
2023/09/12 10:43:52;;;;;;;0.57;0.40;;;;;;;28.67;28.65;99833.94;4970083;28;20022;-91
2023/09/12 10:46:17;;;;;;;0.47;0.47;;;;;;;28.49;28.26;99816.53;4964985;28;20045;-89
2023/09/12 10:48:43;;;;;;;1.23;0.85;;;;;;;28.65;28.80;99830.50;4988635;28;20400;-91
2023/09/12 10:51:12;;;;;;;1.50;0.40;;;;;;;28.77;28.11;99843.97;4990034;28;20030;-90
2023/09/12 10:53:38;;;;;;;3.05;1.85;;;;;;;28.62;28.79;99819.06;4972052;28;20046;-89
2023/09/12 10:56:12;;;;;;;1.88;0.88;;;;;;;28.70;28.49;99832.78;4990131;28;20466;-90
2023/09/12 10:59:06;;;;;;;1.07;0.70;;;;;;;28.87;28.57;99815.00;4990189;28;20027;-92
2023/09/12 11:01:48;;;;;;;1.92;1.05;;;;;;;29.20;28.48;99810.28;4933231;29;20035;-87
2023/09/12 11:04:19;;;;;;;1.25;0.90;;;;;;;29.33;28.58;99826.28;4949102;29;20517;-92
2023/09/12 11:06:47;;;;;;;1.15;1.05;;;;;;;29.33;27.60;99794.53;4947865;29;20094;-89
2023/09/12 11:09:19;;;;;;;2.03;1.00;;;;;;;29.36;27.18;99788.84;4948501;29;20546;-92
2023/09/12 11:11:47;;;;;;;0.90;0.70;;;;;;;29.55;27.16;99792.56;4948949;29;20032;-89
2023/09/12 11:14:13;;;;;;;1.70;1.60;;;;;;;29.54;28.14;99797.16;4949741;29;20071;-90
2023/09/12 11:16:39;;;;;;;1.10;0.68;;;;;;;29.51;27.16;99772.13;4950049;29;20146;-90
2023/09/12 11:19:24;;;;;;;1.17;0.50;;;;;;;29.56;27.77;99797.84;4949747;29;20039;-90
2023/09/12 11:21:50;;;;;;;1.42;0.60;;;;;;;29.65;27.75;99796.13;4948641;29;20039;-89
2023/09/12 11:24:17;;;;;;;1.60;0.88;;;;;;;29.16;27.48;99760.75;4949693;29;20080;-91
2023/09/12 11:26:59;;;;;;;2.85;0.98;;;;;;;29.18;30.10;99734.34;4950376;29;20073;-92
2023/09/12 11:29:29;;;;;;;1.42;0.70;;;;;;;29.57;28.85;99768.84;4949830;29;20035;-91
2023/09/12 11:32:00;;;;;;;1.50;1.27;;;;;;;29.36;29.00;99749.94;4948868;29;20051;-90
2023/09/12 11:34:29;;;;;;;3.60;1.23;;;;;;;29.71;28.16;99783.84;4949324;29;20134;-89
2023/09/12 11:37:00;;;;;;;3.47;1.60;;;;;;;29.71;27.45;99775.69;4933155;29;20503;-88
2023/09/12 11:39:33;;;;;;;2.80;0.60;;;;;;;29.55;27.66;99773.53;4970105;28;20050;-89
2023/09/12 11:42:00;;;;;;;2.75;1.00;;;;;;;29.61;28.18;99790.16;4972069;28;20054;-88
2023/09/12 11:44:27;;;;;;;3.35;0.93;;;;;;;29.55;28.15;99779.84;4988326;28;20058;-89
2023/09/12 11:46:54;;;;;;;0.70;0.70;;;;;;;29.63;28.24;99760.97;4989733;28;20357;-88